createdAt,value
2023-03-31T00:00:48.775Z,12.97
2023-03-31T00:03:21.806Z,13.01
2023-03-31T00:05:48.890Z,12.94
2023-03-31T00:08:15.516Z,12.96
2023-03-31T00:10:46.630Z,12.89
2023-03-31T00:13:14.218Z,12.92
2023-03-31T00:15:41.223Z,12.88
2023-03-31T00:18:07.988Z,12.88
2023-03-31T00:20:37.871Z,12.77
2023-03-31T00:23:10.818Z,12.76
2023-03-31T00:25:41.682Z,12.83
2023-03-31T00:28:08.640Z,12.85
2023-03-31T00:30:35.410Z,12.86
2023-03-31T00:33:02.556Z,12.86
2023-03-31T00:35:29.388Z,12.88
2023-03-31T00:37:57.807Z,12.88
2023-03-31T00:40:24.629Z,12.71
2023-03-31T00:42:51.268Z,12.95
2023-03-31T00:45:23.646Z,12.82
2023-03-31T00:48:14.866Z,12.64
2023-03-31T00:50:50.404Z,12.75
2023-03-31T00:53:22.594Z,12.90
2023-03-31T00:55:53.008Z,12.87
2023-03-31T00:58:21.723Z,12.87
2023-03-31T01:00:51.309Z,12.82
2023-03-31T01:03:19.327Z,12.79
2023-03-31T01:05:51.161Z,12.73
2023-03-31T01:08:24.262Z,12.80
2023-03-31T01:10:54.665Z,12.87
2023-03-31T01:13:22.352Z,12.75
2023-03-31T01:15:49.401Z,12.78
2023-03-31T01:18:21.273Z,12.86
2023-03-31T01:21:19.149Z,13.00
2023-03-31T01:24:07.186Z,13.00
2023-03-31T01:27:01.810Z,12.96
2023-03-31T01:29:49.740Z,13.13
2023-03-31T01:33:03.771Z,13.00
2023-03-31T01:36:09.502Z,12.98
2023-03-31T01:39:08.781Z,13.10
2023-03-31T01:41:47.835Z,13.01
2023-03-31T01:44:28.053Z,12.90
2023-03-31T01:47:11.141Z,12.95
2023-03-31T01:49:40.806Z,12.99
2023-03-31T01:52:22.687Z,12.94
2023-03-31T01:54:55.296Z,12.81
2023-03-31T01:57:29.644Z,12.72
2023-03-31T02:00:04.681Z,12.77
2023-03-31T02:02:57.733Z,12.65
2023-03-31T02:05:30.139Z,12.67
2023-03-31T02:08:02.718Z,12.57
2023-03-31T02:10:31.839Z,12.56
2023-03-31T02:13:01.498Z,12.53
2023-03-31T02:15:33.446Z,12.57
2023-03-31T02:18:06.159Z,12.49
2023-03-31T02:20:33.783Z,12.52
2023-03-31T02:23:00.798Z,12.49
2023-03-31T02:25:38.626Z,12.45
2023-03-31T02:28:16.262Z,12.52
2023-03-31T02:30:52.972Z,12.56
2023-03-31T02:33:19.734Z,12.60
2023-03-31T02:35:46.576Z,12.59
2023-03-31T02:38:14.024Z,12.61
2023-03-31T02:40:40.829Z,12.55
2023-03-31T02:43:07.600Z,12.52
2023-03-31T02:45:41.826Z,12.57
2023-03-31T02:48:22.455Z,12.56
2023-03-31T02:51:22.956Z,12.58
2023-03-31T02:53:58.666Z,12.57
2023-03-31T02:57:07.121Z,12.61
2023-03-31T02:59:45.865Z,12.65
2023-03-31T03:02:15.730Z,12.71
2023-03-31T03:04:58.461Z,12.71
2023-03-31T03:07:29.112Z,12.61
2023-03-31T03:10:05.099Z,12.70
2023-03-31T03:12:50.711Z,12.64
2023-03-31T03:15:24.682Z,12.64
2023-03-31T03:17:52.006Z,12.58
2023-03-31T03:20:20.711Z,12.55
2023-03-31T03:22:47.525Z,12.49
2023-03-31T03:25:17.218Z,12.46
2023-03-31T03:27:44.332Z,12.40
2023-03-31T03:30:12.666Z,12.55
2023-03-31T03:32:39.411Z,12.42
2023-03-31T03:35:07.129Z,12.50
2023-03-31T03:37:35.337Z,12.53
2023-03-31T03:40:02.044Z,12.51
2023-03-31T03:42:29.895Z,12.41
2023-03-31T03:44:56.588Z,12.42
2023-03-31T03:47:24.068Z,12.62
2023-03-31T03:49:51.527Z,12.68
2023-03-31T03:52:18.179Z,12.70
2023-03-31T03:54:45.054Z,12.71
2023-03-31T03:57:11.840Z,12.75
2023-03-31T03:59:38.520Z,12.78
2023-03-31T04:02:06.420Z,12.56
2023-03-31T04:04:33.185Z,12.60
2023-03-31T04:06:59.878Z,12.53
2023-03-31T04:09:26.527Z,12.70
2023-03-31T04:11:53.255Z,12.70
2023-03-31T04:14:19.877Z,12.75
2023-03-31T04:16:46.930Z,12.67
2023-03-31T04:19:17.511Z,12.66
2023-03-31T04:21:50.767Z,12.70
2023-03-31T04:24:21.826Z,12.86
2023-03-31T04:26:50.973Z,12.74
2023-03-31T04:29:19.801Z,12.62
2023-03-31T04:31:46.661Z,12.44
2023-03-31T04:34:15.385Z,12.48
2023-03-31T04:36:48.001Z,12.52
2023-03-31T04:39:26.855Z,12.43
2023-03-31T04:41:54.000Z,12.36
2023-03-31T04:44:20.928Z,12.36
2023-03-31T04:46:47.815Z,12.41
2023-03-31T04:49:14.558Z,12.45
2023-03-31T04:51:41.364Z,12.46
2023-03-31T04:54:08.164Z,12.37
2023-03-31T04:56:34.905Z,12.39
2023-03-31T04:59:03.717Z,12.33
2023-03-31T05:01:36.317Z,12.28
2023-03-31T05:04:06.737Z,12.26
2023-03-31T05:06:33.777Z,12.26
2023-03-31T05:09:00.586Z,12.24
2023-03-31T05:11:27.474Z,12.13
2023-03-31T05:13:54.464Z,12.13
2023-03-31T05:16:21.734Z,12.05
2023-03-31T05:18:48.464Z,11.98
2023-03-31T05:21:17.662Z,12.01
2023-03-31T05:23:44.754Z,12.09
2023-03-31T05:26:11.954Z,12.04
2023-03-31T05:28:38.787Z,11.98
2023-03-31T05:31:07.303Z,11.76
2023-03-31T05:33:35.024Z,11.95
2023-03-31T05:36:01.667Z,11.95
2023-03-31T05:38:31.797Z,11.84
2023-03-31T05:40:58.506Z,11.88
2023-03-31T05:43:25.414Z,11.89
2023-03-31T05:45:52.184Z,11.98
2023-03-31T05:48:19.530Z,11.92
2023-03-31T05:50:46.459Z,12.03
2023-03-31T05:53:13.942Z,12.01
2023-03-31T05:55:40.745Z,11.97
2023-03-31T05:58:08.550Z,12.02
2023-03-31T06:00:36.266Z,12.03
2023-03-31T06:03:03.074Z,11.95
2023-03-31T06:05:31.323Z,12.01
2023-03-31T06:07:58.000Z,12.01
2023-03-31T06:10:24.665Z,11.66
2023-03-31T06:12:51.637Z,11.56
2023-03-31T06:15:18.272Z,11.74
2023-03-31T06:17:45.002Z,11.89
2023-03-31T06:20:24.551Z,11.75
2023-03-31T06:22:54.298Z,11.70
2023-03-31T06:25:21.619Z,11.86
2023-03-31T06:27:48.430Z,11.78
2023-03-31T06:30:15.198Z,11.73
2023-03-31T06:32:41.871Z,11.71
2023-03-31T06:35:09.070Z,11.69
2023-03-31T06:37:35.850Z,11.62
2023-03-31T06:40:02.914Z,11.68
2023-03-31T06:42:29.852Z,11.64
2023-03-31T06:44:56.541Z,11.53
2023-03-31T06:47:23.273Z,11.55
2023-03-31T06:49:49.984Z,11.52
2023-03-31T06:52:16.712Z,11.66
2023-03-31T06:54:43.359Z,11.70
2023-03-31T06:57:10.243Z,11.63
2023-03-31T06:59:36.979Z,11.56
2023-03-31T07:02:04.006Z,11.70
2023-03-31T07:04:30.762Z,11.78
2023-03-31T07:06:58.839Z,11.65
2023-03-31T07:09:25.632Z,11.50
2023-03-31T07:11:52.429Z,11.52
2023-03-31T07:14:19.066Z,11.38
2023-03-31T07:16:46.002Z,11.42
2023-03-31T07:19:13.451Z,11.51
2023-03-31T07:21:40.092Z,11.56
2023-03-31T07:24:06.973Z,11.63
2023-03-31T07:26:33.753Z,11.55
2023-03-31T07:29:00.404Z,11.37
2023-03-31T07:31:27.141Z,11.70
2023-03-31T07:33:53.962Z,12.23
2023-03-31T07:36:21.024Z,11.92
2023-03-31T07:38:49.550Z,11.72
2023-03-31T07:41:19.092Z,11.69
2023-03-31T07:43:46.649Z,11.76
2023-03-31T07:46:21.909Z,11.91
2023-03-31T07:48:49.652Z,12.37
2023-03-31T07:51:19.115Z,12.36
2023-03-31T07:53:46.526Z,12.62
2023-03-31T07:56:13.388Z,12.32
2023-03-31T07:58:40.412Z,12.04
2023-03-31T08:01:08.267Z,11.98
2023-03-31T08:03:35.234Z,11.91
2023-03-31T08:06:01.961Z,11.75
2023-03-31T08:08:28.758Z,11.80
2023-03-31T08:10:55.507Z,11.65
2023-03-31T08:13:26.292Z,11.56
2023-03-31T08:15:53.037Z,11.65
2023-03-31T08:18:20.039Z,11.65
2023-03-31T08:20:49.751Z,11.63
2023-03-31T08:23:16.357Z,11.77
2023-03-31T08:25:43.062Z,11.84
2023-03-31T08:28:14.027Z,11.92
2023-03-31T08:30:41.672Z,11.95
2023-03-31T08:33:08.859Z,11.91
2023-03-31T08:35:36.122Z,11.91
2023-03-31T08:38:03.239Z,12.23
2023-03-31T08:40:31.550Z,12.10
2023-03-31T08:43:28.068Z,12.47
2023-03-31T08:45:56.091Z,12.35
2023-03-31T08:48:30.949Z,12.43
2023-03-31T08:51:03.327Z,12.42
2023-03-31T08:53:35.275Z,12.42
2023-03-31T08:56:06.287Z,12.49
2023-03-31T08:58:51.760Z,12.47
2023-03-31T09:01:55.687Z,12.47
2023-03-31T09:04:32.517Z,12.47
2023-03-31T09:07:15.572Z,12.46
2023-03-31T09:10:10.365Z,12.46
2023-03-31T09:12:59.101Z,12.52
2023-03-31T09:15:41.370Z,12.49
2023-03-31T09:18:21.960Z,12.45
2023-03-31T09:20:53.398Z,12.44
2023-03-31T09:23:32.256Z,12.28
2023-03-31T09:26:01.652Z,12.26
2023-03-31T09:28:39.097Z,12.30
2023-03-31T09:31:15.951Z,12.38
2023-03-31T09:33:45.917Z,12.18
2023-03-31T09:36:24.366Z,11.51
2023-03-31T09:38:51.694Z,11.30
2023-03-31T09:41:19.320Z,11.22
2023-03-31T09:43:47.763Z,11.38
2023-03-31T09:46:33.229Z,11.36
2023-03-31T09:49:28.578Z,11.37
2023-03-31T09:52:04.103Z,11.52
2023-03-31T09:54:51.462Z,11.59
2023-03-31T09:57:29.932Z,11.38
2023-03-31T10:00:16.591Z,11.70
2023-03-31T10:02:45.808Z,11.94
2023-03-31T10:05:37.030Z,12.06
2023-03-31T10:08:25.711Z,12.33
2023-03-31T10:11:09.787Z,12.31
2023-03-31T10:13:46.423Z,12.48
2023-03-31T10:16:28.482Z,12.44
2023-03-31T10:18:57.366Z,12.47
2023-03-31T10:21:35.073Z,12.60
2023-03-31T10:24:08.137Z,12.54
2023-03-31T10:26:35.393Z,12.49
2023-03-31T10:29:02.645Z,12.55
2023-03-31T10:31:37.255Z,12.65
2023-03-31T10:34:12.865Z,13.00
2023-03-31T10:36:47.533Z,12.97
2023-03-31T10:39:17.170Z,12.95
2023-03-31T10:41:50.594Z,12.75
2023-03-31T10:44:38.147Z,12.93
2023-03-31T10:47:33.211Z,13.20
2023-03-31T10:50:04.133Z,13.13
2023-03-31T10:52:45.374Z,13.03
2023-03-31T10:55:24.777Z,13.13
2023-03-31T10:58:58.154Z,12.66
2023-03-31T11:02:01.018Z,12.15
2023-03-31T11:04:44.258Z,12.23
2023-03-31T11:07:45.551Z,12.11
2023-03-31T11:10:27.061Z,12.08
2023-03-31T11:13:05.079Z,12.17
2023-03-31T11:15:37.654Z,12.03
2023-03-31T11:18:32.454Z,12.09
2023-03-31T11:21:23.284Z,12.25
2023-03-31T11:24:07.105Z,12.50
2023-03-31T11:27:04.205Z,12.51
2023-03-31T11:29:38.187Z,12.47
2023-03-31T11:32:04.880Z,12.64
2023-03-31T11:35:04.273Z,13.06
2023-03-31T11:37:37.020Z,13.55
2023-03-31T11:40:32.161Z,13.60
2023-03-31T11:43:27.577Z,13.31
2023-03-31T11:46:01.756Z,13.41
2023-03-31T11:48:40.364Z,13.35
2023-03-31T11:51:14.278Z,13.41
2023-03-31T11:53:45.646Z,13.29
2023-03-31T11:56:13.025Z,13.24
2023-03-31T11:58:51.404Z,13.28
2023-03-31T12:01:27.018Z,12.97
2023-03-31T12:04:11.556Z,12.57
2023-03-31T12:06:42.623Z,12.35
2023-03-31T12:09:30.552Z,12.13
2023-03-31T12:12:28.912Z,12.40
2023-03-31T12:15:08.379Z,12.56
2023-03-31T12:17:41.708Z,12.57
2023-03-31T12:20:41.232Z,12.73
2023-03-31T12:23:15.391Z,12.71
2023-03-31T12:26:08.427Z,12.77
2023-03-31T12:28:38.924Z,12.74
2023-03-31T12:31:08.424Z,12.85
2023-03-31T12:33:43.308Z,12.93
2023-03-31T12:36:18.096Z,12.93
2023-03-31T12:39:23.116Z,12.95
2023-03-31T12:42:27.754Z,13.10
2023-03-31T12:45:12.152Z,13.16
2023-03-31T12:47:59.719Z,13.24
2023-03-31T12:51:10.064Z,13.21
2023-03-31T12:53:36.729Z,13.26
2023-03-31T12:56:03.792Z,13.15
2023-03-31T12:58:33.128Z,13.11
2023-03-31T13:01:21.518Z,13.22
2023-03-31T13:04:26.772Z,13.20
2023-03-31T13:06:57.251Z,13.20
2023-03-31T13:09:33.172Z,13.02
2023-03-31T13:12:08.152Z,13.13
2023-03-31T13:14:40.205Z,13.33
2023-03-31T13:17:36.166Z,13.36
2023-03-31T13:20:26.334Z,13.13
2023-03-31T13:23:02.496Z,13.34
2023-03-31T13:25:29.149Z,13.28
2023-03-31T13:27:57.753Z,13.29
2023-03-31T13:30:36.842Z,13.43
2023-03-31T13:33:09.996Z,13.27
2023-03-31T13:35:39.338Z,13.50
2023-03-31T13:38:23.627Z,13.35
2023-03-31T13:41:06.746Z,13.18
2023-03-31T13:43:51.459Z,13.19
2023-03-31T13:46:46.104Z,13.42
2023-03-31T13:49:31.731Z,13.46
2023-03-31T13:52:01.152Z,13.45
2023-03-31T13:55:25.204Z,13.40
2023-03-31T13:58:35.111Z,13.24
2023-03-31T14:01:26.806Z,12.94
2023-03-31T14:04:02.314Z,12.82
2023-03-31T14:06:50.266Z,12.79
2023-03-31T14:09:31.388Z,12.69
2023-03-31T14:12:18.360Z,12.46
2023-03-31T14:14:45.162Z,12.34
2023-03-31T14:17:12.302Z,12.05
2023-03-31T14:20:10.539Z,12.12
2023-03-31T14:23:06.475Z,12.32
2023-03-31T14:26:03.819Z,12.32
2023-03-31T14:29:01.064Z,12.76
2023-03-31T14:31:45.243Z,12.83
2023-03-31T14:34:39.953Z,12.94
2023-03-31T14:37:13.588Z,13.29
2023-03-31T14:39:43.393Z,13.34
2023-03-31T14:42:19.018Z,13.19
2023-03-31T14:44:48.562Z,13.43
2023-03-31T14:47:20.759Z,13.04
2023-03-31T14:49:47.924Z,12.96
2023-03-31T14:52:19.142Z,13.02
2023-03-31T14:54:47.681Z,12.98
2023-03-31T14:57:20.505Z,13.08
2023-03-31T14:59:52.710Z,12.95
2023-03-31T15:02:32.697Z,12.75
2023-03-31T15:05:03.175Z,12.68
2023-03-31T15:07:30.386Z,12.64
2023-03-31T15:09:57.310Z,12.49
2023-03-31T15:12:25.014Z,12.57
2023-03-31T15:14:57.019Z,12.54
2023-03-31T15:17:29.455Z,12.58
2023-03-31T15:19:58.952Z,12.67
2023-03-31T15:22:28.736Z,12.83
2023-03-31T15:24:56.066Z,12.97
2023-03-31T15:27:39.251Z,13.04
2023-03-31T15:30:08.936Z,12.98
2023-03-31T15:32:38.996Z,12.86
2023-03-31T15:35:20.926Z,12.75
2023-03-31T15:37:51.033Z,12.81
2023-03-31T15:40:21.015Z,12.74
2023-03-31T15:43:01.605Z,12.84
2023-03-31T15:45:53.395Z,12.84
2023-03-31T15:48:23.106Z,12.82
2023-03-31T15:50:50.420Z,12.63
2023-03-31T15:53:28.565Z,12.45
2023-03-31T15:56:02.555Z,12.26
2023-03-31T15:58:53.494Z,12.28
2023-03-31T16:01:20.860Z,12.16
2023-03-31T16:03:47.822Z,12.29
2023-03-31T16:06:39.492Z,12.17
2023-03-31T16:09:17.630Z,12.27
2023-03-31T16:11:50.489Z,12.24
2023-03-31T16:14:29.545Z,12.29
2023-03-31T16:17:06.652Z,12.22
2023-03-31T16:19:43.445Z,12.24
2023-03-31T16:22:16.985Z,12.28
2023-03-31T16:24:44.198Z,12.37
2023-03-31T16:27:11.062Z,12.35
2023-03-31T16:29:38.551Z,12.39
2023-03-31T16:32:12.206Z,12.31
2023-03-31T16:34:55.784Z,12.41
2023-03-31T16:37:23.232Z,12.33
2023-03-31T16:39:50.433Z,12.37
2023-03-31T16:42:17.470Z,12.40
2023-03-31T16:44:50.000Z,12.44
2023-03-31T16:47:34.747Z,12.47
2023-03-31T16:50:06.991Z,12.47
2023-03-31T16:52:33.612Z,12.56
2023-03-31T16:55:00.374Z,12.55
2023-03-31T16:57:27.153Z,12.47
2023-03-31T16:59:54.466Z,12.44
2023-03-31T17:02:22.497Z,12.51
2023-03-31T17:04:49.536Z,12.98
2023-03-31T17:07:17.365Z,13.13
2023-03-31T17:09:43.969Z,13.10
2023-03-31T17:12:10.650Z,13.05
2023-03-31T17:14:37.575Z,13.47
2023-03-31T17:17:04.238Z,13.34
2023-03-31T17:19:31.472Z,13.37
2023-03-31T17:22:01.870Z,13.07
2023-03-31T17:24:28.612Z,12.97
2023-03-31T17:26:55.505Z,12.99
2023-03-31T17:29:22.286Z,12.93
2023-03-31T17:31:48.963Z,13.12
2023-03-31T17:34:16.866Z,13.02
2023-03-31T17:36:44.421Z,13.08
2023-03-31T17:39:11.149Z,12.92
2023-03-31T17:41:38.143Z,13.02
2023-03-31T17:44:06.987Z,12.82
2023-03-31T17:46:34.657Z,12.86
2023-03-31T17:49:01.564Z,12.79
2023-03-31T17:51:28.822Z,12.86
2023-03-31T17:53:56.355Z,12.76
2023-03-31T17:56:23.894Z,12.74
2023-03-31T17:58:51.095Z,12.97
2023-03-31T18:01:17.763Z,12.83
2023-03-31T18:03:46.227Z,13.06
2023-03-31T18:06:14.626Z,12.89
2023-03-31T18:08:42.619Z,13.20
2023-03-31T18:11:10.079Z,13.21
2023-03-31T18:13:37.233Z,13.07
2023-03-31T18:16:05.580Z,13.10
2023-03-31T18:18:32.564Z,13.30
2023-03-31T18:21:04.472Z,12.87
2023-03-31T18:23:31.969Z,12.71
2023-03-31T18:25:58.665Z,12.73
2023-03-31T18:28:25.709Z,12.74
2023-03-31T18:30:53.242Z,12.52
2023-03-31T18:33:20.251Z,12.47
2023-03-31T18:35:47.126Z,12.54
2023-03-31T18:38:14.133Z,12.61
2023-03-31T18:40:47.695Z,12.49
2023-03-31T18:43:14.630Z,12.39
2023-03-31T18:45:42.123Z,12.12
2023-03-31T18:48:08.822Z,11.95
2023-03-31T18:50:35.928Z,12.08
2023-03-31T18:53:03.444Z,12.14
2023-03-31T18:55:30.379Z,12.01
2023-03-31T18:57:58.017Z,12.01
2023-03-31T19:00:24.824Z,12.02
2023-03-31T19:02:52.014Z,11.97
2023-03-31T19:05:19.344Z,11.71
2023-03-31T19:07:46.223Z,11.83
2023-03-31T19:10:13.167Z,11.71
2023-03-31T19:12:40.063Z,11.78
2023-03-31T19:15:07.724Z,11.58
2023-03-31T19:17:34.504Z,11.58
2023-03-31T19:20:01.409Z,11.42
2023-03-31T19:22:29.908Z,11.40
2023-03-31T19:24:56.737Z,11.37
2023-03-31T19:27:23.878Z,11.29
2023-03-31T19:29:51.076Z,11.51
2023-03-31T19:32:18.232Z,11.44
2023-03-31T19:34:46.249Z,11.26
2023-03-31T19:37:13.717Z,11.36
2023-03-31T19:39:41.232Z,11.27
2023-03-31T19:42:07.887Z,11.28
2023-03-31T19:44:34.540Z,11.35
2023-03-31T19:47:01.143Z,11.16
2023-03-31T19:49:27.891Z,11.28
2023-03-31T19:51:56.030Z,11.36
2023-03-31T19:54:22.692Z,11.26
2023-03-31T19:56:49.773Z,10.97
2023-03-31T19:59:16.522Z,10.96
2023-03-31T20:01:43.271Z,11.15
2023-03-31T20:04:12.105Z,11.00
2023-03-31T20:06:38.880Z,11.07
2023-03-31T20:09:09.282Z,11.05
2023-03-31T20:11:36.446Z,11.05
2023-03-31T20:14:04.104Z,11.28
2023-03-31T20:16:31.610Z,11.12
2023-03-31T20:19:01.824Z,11.12
2023-03-31T20:21:30.164Z,10.97
2023-03-31T20:23:57.355Z,10.83
2023-03-31T20:26:26.478Z,10.98
2023-03-31T20:28:54.906Z,11.00
2023-03-31T20:31:30.281Z,11.09
2023-03-31T20:33:58.006Z,11.03
2023-03-31T20:36:31.496Z,10.82
2023-03-31T20:38:59.837Z,10.78
2023-03-31T20:41:28.997Z,10.86
2023-03-31T20:43:56.610Z,10.74
2023-03-31T20:46:23.848Z,10.88
2023-03-31T20:48:53.188Z,10.73
2023-03-31T20:51:24.625Z,10.77
2023-03-31T20:53:53.077Z,10.65
2023-03-31T20:56:22.466Z,10.80
2023-03-31T20:58:50.759Z,10.73
2023-03-31T21:01:18.251Z,10.68
2023-03-31T21:03:46.192Z,10.65
2023-03-31T21:06:14.547Z,10.61
2023-03-31T21:08:45.298Z,10.73
2023-03-31T21:11:13.269Z,10.64
2023-03-31T21:13:39.957Z,10.59
2023-03-31T21:16:06.963Z,10.77
2023-03-31T21:18:34.812Z,10.54
2023-03-31T21:21:04.510Z,10.64
2023-03-31T21:23:31.541Z,10.72
2023-03-31T21:26:00.398Z,10.48
2023-03-31T21:28:32.800Z,10.59
2023-03-31T21:31:11.575Z,10.62
2023-03-31T21:33:41.643Z,10.56
2023-03-31T21:36:14.157Z,10.67
2023-03-31T21:38:41.274Z,10.56
2023-03-31T21:41:20.568Z,10.51
2023-03-31T21:43:47.264Z,10.52
2023-03-31T21:46:19.618Z,10.54
2023-03-31T21:48:48.736Z,10.48
2023-03-31T21:51:17.003Z,10.49
2023-03-31T21:53:43.830Z,10.51
2023-03-31T21:56:10.515Z,10.54
2023-03-31T21:58:37.117Z,10.67
2023-03-31T22:01:04.844Z,10.67
2023-03-31T22:03:34.265Z,10.67
2023-03-31T22:06:03.468Z,10.67
2023-03-31T22:08:31.545Z,10.67
2023-03-31T22:11:00.095Z,10.68
2023-03-31T22:13:28.163Z,10.67
2023-03-31T22:15:56.171Z,10.63
2023-03-31T22:18:22.979Z,10.67
2023-03-31T22:20:50.759Z,10.74
2023-03-31T22:23:17.782Z,10.67
2023-03-31T22:25:44.516Z,10.75
2023-03-31T22:28:12.589Z,10.72
2023-03-31T22:30:39.392Z,10.69
2023-03-31T22:33:06.219Z,10.68
2023-03-31T22:35:33.525Z,10.62
2023-03-31T22:38:01.596Z,10.67
2023-03-31T22:40:29.306Z,10.64
2023-03-31T22:42:58.273Z,10.55
2023-03-31T22:45:25.391Z,10.59
2023-03-31T22:47:52.175Z,10.63
2023-03-31T22:50:18.864Z,10.64
2023-03-31T22:52:45.952Z,10.59
2023-03-31T22:55:12.682Z,10.59
2023-03-31T22:57:39.503Z,10.61
2023-03-31T23:00:06.870Z,10.73
2023-03-31T23:02:33.520Z,10.64
2023-03-31T23:05:00.178Z,10.63
2023-03-31T23:07:27.978Z,10.67
2023-03-31T23:09:54.576Z,10.67
2023-03-31T23:12:21.185Z,10.70
2023-03-31T23:14:47.765Z,10.74
2023-03-31T23:17:14.416Z,10.71
2023-03-31T23:19:41.724Z,10.72
2023-03-31T23:22:08.578Z,10.77
2023-03-31T23:24:36.178Z,10.79
2023-03-31T23:27:02.741Z,10.74
2023-03-31T23:29:30.666Z,10.77
2023-03-31T23:31:57.618Z,10.76
2023-03-31T23:34:24.399Z,10.84
2023-03-31T23:36:52.625Z,10.90
2023-03-31T23:39:19.282Z,10.91
2023-03-31T23:41:46.416Z,10.95
2023-03-31T23:44:13.235Z,10.96
2023-03-31T23:46:42.006Z,10.95
2023-03-31T23:49:09.224Z,10.95
2023-03-31T23:51:36.283Z,10.81
2023-03-31T23:54:02.986Z,10.73
2023-03-31T23:56:30.600Z,10.95
2023-03-31T23:58:57.516Z,10.81
